sensor_id;sensor_type;location;lat;lon;timestamp;temperature;humidity
11491;DHT22;5802;52.832;4.758;2023-03-13T00:02:25;22.30;39.10
11491;DHT22;5802;52.832;4.758;2023-03-13T00:04:52;22.30;39.10
11491;DHT22;5802;52.832;4.758;2023-03-13T00:07:19;22.30;39.20
11491;DHT22;5802;52.832;4.758;2023-03-13T00:09:45;22.30;39.20
11491;DHT22;5802;52.832;4.758;2023-03-13T00:12:12;22.30;39.20
11491;DHT22;5802;52.832;4.758;2023-03-13T00:14:39;22.30;39.20
11491;DHT22;5802;52.832;4.758;2023-03-13T00:17:05;22.30;39.20
11491;DHT22;5802;52.832;4.758;2023-03-13T00:19:33;22.30;39.20
11491;DHT22;5802;52.832;4.758;2023-03-13T00:22:00;22.30;39.30
11491;DHT22;5802;52.832;4.758;2023-03-13T00:24:27;22.30;39.20
11491;DHT22;5802;52.832;4.758;2023-03-13T00:26:54;22.30;39.30
11491;DHT22;5802;52.832;4.758;2023-03-13T00:29:21;22.30;39.30
11491;DHT22;5802;52.832;4.758;2023-03-13T00:31:48;22.20;39.30
11491;DHT22;5802;52.832;4.758;2023-03-13T00:34:15;22.20;39.30
11491;DHT22;5802;52.832;4.758;2023-03-13T00:36:43;22.30;39.30
11491;DHT22;5802;52.832;4.758;2023-03-13T00:39:09;22.20;39.30
11491;DHT22;5802;52.832;4.758;2023-03-13T00:41:36;22.20;39.30
11491;DHT22;5802;52.832;4.758;2023-03-13T00:44:03;22.20;39.30
11491;DHT22;5802;52.832;4.758;2023-03-13T00:46:30;22.20;39.30
11491;DHT22;5802;52.832;4.758;2023-03-13T00:48:57;22.20;40.00
11491;DHT22;5802;52.832;4.758;2023-03-13T00:51:24;22.20;39.40
11491;DHT22;5802;52.832;4.758;2023-03-13T00:53:52;22.20;39.50
11491;DHT22;5802;52.832;4.758;2023-03-13T00:56:20;22.20;39.50
11491;DHT22;5802;52.832;4.758;2023-03-13T00:58:48;22.20;39.50
11491;DHT22;5802;52.832;4.758;2023-03-13T01:01:16;22.20;39.60
11491;DHT22;5802;52.832;4.758;2023-03-13T01:03:46;22.20;39.50
11491;DHT22;5802;52.832;4.758;2023-03-13T01:06:15;22.20;39.60
11491;DHT22;5802;52.832;4.758;2023-03-13T01:08:41;22.20;39.60
11491;DHT22;5802;52.832;4.758;2023-03-13T01:11:11;22.20;39.50
11491;DHT22;5802;52.832;4.758;2023-03-13T01:13:39;22.20;39.50
11491;DHT22;5802;52.832;4.758;2023-03-13T01:16:08;22.20;39.60
11491;DHT22;5802;52.832;4.758;2023-03-13T01:18:36;22.20;39.60
11491;DHT22;5802;52.832;4.758;2023-03-13T01:21:04;22.20;39.50
11491;DHT22;5802;52.832;4.758;2023-03-13T01:23:32;22.20;39.50
11491;DHT22;5802;52.832;4.758;2023-03-13T01:25:58;22.20;39.60
11491;DHT22;5802;52.832;4.758;2023-03-13T01:28:27;22.20;39.60
11491;DHT22;5802;52.832;4.758;2023-03-13T01:30:53;22.20;39.50
11491;DHT22;5802;52.832;4.758;2023-03-13T01:33:20;22.30;39.60
11491;DHT22;5802;52.832;4.758;2023-03-13T01:35:47;22.20;39.60
11491;DHT22;5802;52.832;4.758;2023-03-13T01:38:14;22.20;39.60
11491;DHT22;5802;52.832;4.758;2023-03-13T01:40:41;22.20;39.60
11491;DHT22;5802;52.832;4.758;2023-03-13T01:43:16;22.20;39.60
11491;DHT22;5802;52.832;4.758;2023-03-13T01:46:00;22.20;39.70
11491;DHT22;5802;52.832;4.758;2023-03-13T01:48:33;22.20;39.70
11491;DHT22;5802;52.832;4.758;2023-03-13T01:51:04;22.20;39.80
11491;DHT22;5802;52.832;4.758;2023-03-13T01:53:33;22.20;39.90
11491;DHT22;5802;52.832;4.758;2023-03-13T01:56:05;22.20;39.90
11491;DHT22;5802;52.832;4.758;2023-03-13T01:58:33;22.20;39.90
11491;DHT22;5802;52.832;4.758;2023-03-13T02:01:03;22.20;39.80
11491;DHT22;5802;52.832;4.758;2023-03-13T02:03:30;22.20;39.90
11491;DHT22;5802;52.832;4.758;2023-03-13T02:05:58;22.20;40.60
11491;DHT22;5802;52.832;4.758;2023-03-13T02:08:30;22.20;39.90
11491;DHT22;5802;52.832;4.758;2023-03-13T02:11:06;22.20;40.00
11491;DHT22;5802;52.832;4.758;2023-03-13T02:13:34;22.20;40.00
11491;DHT22;5802;52.832;4.758;2023-03-13T02:16:03;22.20;40.00
11491;DHT22;5802;52.832;4.758;2023-03-13T02:18:30;22.20;40.00
11491;DHT22;5802;52.832;4.758;2023-03-13T02:21:04;22.20;40.00
11491;DHT22;5802;52.832;4.758;2023-03-13T02:23:38;22.20;40.00
11491;DHT22;5802;52.832;4.758;2023-03-13T02:26:08;22.20;40.10
11491;DHT22;5802;52.832;4.758;2023-03-13T02:28:36;22.20;40.10
11491;DHT22;5802;52.832;4.758;2023-03-13T02:31:04;22.20;40.20
11491;DHT22;5802;52.832;4.758;2023-03-13T02:33:34;22.20;40.10
11491;DHT22;5802;52.832;4.758;2023-03-13T02:36:03;22.20;40.20
11491;DHT22;5802;52.832;4.758;2023-03-13T02:38:34;22.20;40.20
11491;DHT22;5802;52.832;4.758;2023-03-13T02:41:03;22.20;40.20
11491;DHT22;5802;52.832;4.758;2023-03-13T02:43:33;22.20;40.20
11491;DHT22;5802;52.832;4.758;2023-03-13T02:46:06;22.20;40.20
11491;DHT22;5802;52.832;4.758;2023-03-13T02:48:35;22.20;40.30
11491;DHT22;5802;52.832;4.758;2023-03-13T02:51:05;22.20;40.30
11491;DHT22;5802;52.832;4.758;2023-03-13T02:53:34;22.20;40.90
11491;DHT22;5802;52.832;4.758;2023-03-13T02:56:02;22.20;40.90
11491;DHT22;5802;52.832;4.758;2023-03-13T02:58:38;22.20;40.30
11491;DHT22;5802;52.832;4.758;2023-03-13T03:01:05;22.20;40.30
11491;DHT22;5802;52.832;4.758;2023-03-13T03:03:32;22.20;40.30
11491;DHT22;5802;52.832;4.758;2023-03-13T03:05:59;22.20;40.40
11491;DHT22;5802;52.832;4.758;2023-03-13T03:08:26;22.20;40.30
11491;DHT22;5802;52.832;4.758;2023-03-13T03:10:52;22.20;40.30
11491;DHT22;5802;52.832;4.758;2023-03-13T03:13:19;22.20;40.30
11491;DHT22;5802;52.832;4.758;2023-03-13T03:15:47;22.20;41.00
11491;DHT22;5802;52.832;4.758;2023-03-13T03:18:14;22.20;40.30
11491;DHT22;5802;52.832;4.758;2023-03-13T03:20:40;22.20;40.40
11491;DHT22;5802;52.832;4.758;2023-03-13T03:23:07;22.20;40.40
11491;DHT22;5802;52.832;4.758;2023-03-13T03:25:34;22.20;40.40
11491;DHT22;5802;52.832;4.758;2023-03-13T03:28:00;22.30;40.40
11491;DHT22;5802;52.832;4.758;2023-03-13T03:30:27;22.30;40.40
11491;DHT22;5802;52.832;4.758;2023-03-13T03:32:55;22.30;40.50
11491;DHT22;5802;52.832;4.758;2023-03-13T03:35:22;22.20;40.40
11491;DHT22;5802;52.832;4.758;2023-03-13T03:37:48;22.30;40.40
11491;DHT22;5802;52.832;4.758;2023-03-13T03:40:15;22.30;40.50
11491;DHT22;5802;52.832;4.758;2023-03-13T03:42:42;22.30;40.50
11491;DHT22;5802;52.832;4.758;2023-03-13T03:45:09;22.20;40.50
11491;DHT22;5802;52.832;4.758;2023-03-13T03:47:36;22.20;40.50
11491;DHT22;5802;52.832;4.758;2023-03-13T03:50:05;22.30;40.50
11491;DHT22;5802;52.832;4.758;2023-03-13T03:52:32;22.20;40.50
11491;DHT22;5802;52.832;4.758;2023-03-13T03:54:58;22.30;40.50
11491;DHT22;5802;52.832;4.758;2023-03-13T03:57:25;22.30;40.60
11491;DHT22;5802;52.832;4.758;2023-03-13T03:59:52;22.30;40.60
11491;DHT22;5802;52.832;4.758;2023-03-13T04:02:18;22.30;40.60
11491;DHT22;5802;52.832;4.758;2023-03-13T04:04:45;22.30;40.60
11491;DHT22;5802;52.832;4.758;2023-03-13T04:07:13;22.30;41.20
11491;DHT22;5802;52.832;4.758;2023-03-13T04:09:40;22.30;40.60
11491;DHT22;5802;52.832;4.758;2023-03-13T04:12:07;22.30;40.60
11491;DHT22;5802;52.832;4.758;2023-03-13T04:14:34;22.30;40.60
11491;DHT22;5802;52.832;4.758;2023-03-13T04:17:01;22.30;40.60
11491;DHT22;5802;52.832;4.758;2023-03-13T04:19:27;22.30;40.60
11491;DHT22;5802;52.832;4.758;2023-03-13T04:21:54;22.30;40.60
11491;DHT22;5802;52.832;4.758;2023-03-13T04:24:22;22.30;40.60
11491;DHT22;5802;52.832;4.758;2023-03-13T04:26:48;22.30;40.70
11491;DHT22;5802;52.832;4.758;2023-03-13T04:29:15;22.30;40.70
11491;DHT22;5802;52.832;4.758;2023-03-13T04:31:42;22.30;40.70
11491;DHT22;5802;52.832;4.758;2023-03-13T04:34:08;22.30;40.70
11491;DHT22;5802;52.832;4.758;2023-03-13T04:36:35;22.30;40.70
11491;DHT22;5802;52.832;4.758;2023-03-13T04:39:02;22.30;40.70
11491;DHT22;5802;52.832;4.758;2023-03-13T04:41:30;22.30;40.70
11491;DHT22;5802;52.832;4.758;2023-03-13T04:43:57;22.30;40.70
11491;DHT22;5802;52.832;4.758;2023-03-13T04:46:24;22.30;40.70
11491;DHT22;5802;52.832;4.758;2023-03-13T04:48:50;22.30;40.70
11491;DHT22;5802;52.832;4.758;2023-03-13T04:51:17;22.30;40.70
11491;DHT22;5802;52.832;4.758;2023-03-13T04:53:44;22.30;40.70
11491;DHT22;5802;52.832;4.758;2023-03-13T04:56:11;22.30;40.70
11491;DHT22;5802;52.832;4.758;2023-03-13T04:58:43;22.30;40.70
11491;DHT22;5802;52.832;4.758;2023-03-13T05:01:10;22.30;40.80
11491;DHT22;5802;52.832;4.758;2023-03-13T05:03:36;22.30;40.80
11491;DHT22;5802;52.832;4.758;2023-03-13T05:06:03;22.30;40.80
11491;DHT22;5802;52.832;4.758;2023-03-13T05:08:30;22.30;40.80
11491;DHT22;5802;52.832;4.758;2023-03-13T05:10:57;22.30;40.80
11491;DHT22;5802;52.832;4.758;2023-03-13T05:13:23;22.30;40.90
11491;DHT22;5802;52.832;4.758;2023-03-13T05:15:51;22.30;40.90
11491;DHT22;5802;52.832;4.758;2023-03-13T05:18:18;22.30;40.90
11491;DHT22;5802;52.832;4.758;2023-03-13T05:20:45;22.30;41.00
11491;DHT22;5802;52.832;4.758;2023-03-13T05:23:12;22.30;40.90
11491;DHT22;5802;52.832;4.758;2023-03-13T05:25:38;22.30;40.90
11491;DHT22;5802;52.832;4.758;2023-03-13T05:28:05;22.30;41.00
11491;DHT22;5802;52.832;4.758;2023-03-13T05:30:32;22.30;40.90
11491;DHT22;5802;52.832;4.758;2023-03-13T05:33:00;22.30;41.00
11491;DHT22;5802;52.832;4.758;2023-03-13T05:35:27;22.30;41.00
11491;DHT22;5802;52.832;4.758;2023-03-13T05:37:53;22.30;41.00
11491;DHT22;5802;52.832;4.758;2023-03-13T05:40:20;22.30;41.00
11491;DHT22;5802;52.832;4.758;2023-03-13T05:42:47;22.30;41.00
11491;DHT22;5802;52.832;4.758;2023-03-13T05:45:14;22.30;41.00
11491;DHT22;5802;52.832;4.758;2023-03-13T05:47:40;22.30;41.00
11491;DHT22;5802;52.832;4.758;2023-03-13T05:50:09;22.30;41.00
11491;DHT22;5802;52.832;4.758;2023-03-13T05:52:36;22.30;41.00
11491;DHT22;5802;52.832;4.758;2023-03-13T05:55:03;22.30;41.00
11491;DHT22;5802;52.832;4.758;2023-03-13T05:57:31;22.30;41.00
11491;DHT22;5802;52.832;4.758;2023-03-13T05:59:58;22.30;41.00
11491;DHT22;5802;52.832;4.758;2023-03-13T06:02:24;22.30;41.00
11491;DHT22;5802;52.832;4.758;2023-03-13T06:04:52;22.30;41.00
11491;DHT22;5802;52.832;4.758;2023-03-13T06:07:20;22.30;41.00
11491;DHT22;5802;52.832;4.758;2023-03-13T06:09:46;22.30;41.00
11491;DHT22;5802;52.832;4.758;2023-03-13T06:12:13;22.30;41.00
11491;DHT22;5802;52.832;4.758;2023-03-13T06:14:40;22.30;41.00
11491;DHT22;5802;52.832;4.758;2023-03-13T06:17:06;22.30;41.00
11491;DHT22;5802;52.832;4.758;2023-03-13T06:19:33;22.30;41.00
11491;DHT22;5802;52.832;4.758;2023-03-13T06:22:00;22.30;41.00
11491;DHT22;5802;52.832;4.758;2023-03-13T06:24:28;22.30;41.00
11491;DHT22;5802;52.832;4.758;2023-03-13T06:26:54;22.30;41.00
11491;DHT22;5802;52.832;4.758;2023-03-13T06:29:21;22.30;41.00
11491;DHT22;5802;52.832;4.758;2023-03-13T06:31:49;22.30;41.00
11491;DHT22;5802;52.832;4.758;2023-03-13T06:34:16;22.30;41.00
11491;DHT22;5802;52.832;4.758;2023-03-13T06:36:43;22.30;41.00
11491;DHT22;5802;52.832;4.758;2023-03-13T06:39:10;22.30;41.00
11491;DHT22;5802;52.832;4.758;2023-03-13T06:41:38;22.30;41.00
11491;DHT22;5802;52.832;4.758;2023-03-13T06:44:05;22.30;41.00
11491;DHT22;5802;52.832;4.758;2023-03-13T06:46:32;22.30;41.00
11491;DHT22;5802;52.832;4.758;2023-03-13T06:48:59;22.30;41.00
11491;DHT22;5802;52.832;4.758;2023-03-13T06:51:29;22.30;41.00
11491;DHT22;5802;52.832;4.758;2023-03-13T06:53:55;22.30;41.00
11491;DHT22;5802;52.832;4.758;2023-03-13T06:56:22;22.40;41.20
11491;DHT22;5802;52.832;4.758;2023-03-13T06:58:50;22.40;41.20
11491;DHT22;5802;52.832;4.758;2023-03-13T07:01:17;22.40;41.40
11491;DHT22;5802;52.832;4.758;2023-03-13T07:03:46;22.30;41.30
11491;DHT22;5802;52.832;4.758;2023-03-13T07:06:13;22.40;41.40
11491;DHT22;5802;52.832;4.758;2023-03-13T07:08:40;22.40;41.40
11491;DHT22;5802;52.832;4.758;2023-03-13T07:11:09;22.40;41.40
11491;DHT22;5802;52.832;4.758;2023-03-13T07:13:36;22.40;41.40
11491;DHT22;5802;52.832;4.758;2023-03-13T07:16:05;22.40;41.40
11491;DHT22;5802;52.832;4.758;2023-03-13T07:18:33;22.40;41.40
11491;DHT22;5802;52.832;4.758;2023-03-13T07:21:01;22.40;41.40
11491;DHT22;5802;52.832;4.758;2023-03-13T07:23:29;22.40;41.40
11491;DHT22;5802;52.832;4.758;2023-03-13T07:25:58;22.40;41.40
11491;DHT22;5802;52.832;4.758;2023-03-13T07:28:26;22.40;41.40
11491;DHT22;5802;52.832;4.758;2023-03-13T07:30:54;22.40;41.30
11491;DHT22;5802;52.832;4.758;2023-03-13T07:33:22;22.40;41.30
11491;DHT22;5802;52.832;4.758;2023-03-13T07:35:49;22.40;41.30
11491;DHT22;5802;52.832;4.758;2023-03-13T07:38:16;22.40;41.30
11491;DHT22;5802;52.832;4.758;2023-03-13T07:40:47;22.40;41.20
11491;DHT22;5802;52.832;4.758;2023-03-13T07:43:14;22.50;41.10
11491;DHT22;5802;52.832;4.758;2023-03-13T07:45:49;22.50;41.30
11491;DHT22;5802;52.832;4.758;2023-03-13T07:48:16;22.50;41.40
11491;DHT22;5802;52.832;4.758;2023-03-13T07:50:44;22.50;41.30
11491;DHT22;5802;52.832;4.758;2023-03-13T07:53:11;22.50;41.30
11491;DHT22;5802;52.832;4.758;2023-03-13T07:55:38;22.50;41.30
11491;DHT22;5802;52.832;4.758;2023-03-13T07:58:05;22.50;41.20
11491;DHT22;5802;52.832;4.758;2023-03-13T08:00:31;22.60;41.30
11491;DHT22;5802;52.832;4.758;2023-03-13T08:02:58;22.60;41.20
11491;DHT22;5802;52.832;4.758;2023-03-13T08:05:25;22.60;41.20
11491;DHT22;5802;52.832;4.758;2023-03-13T08:07:53;22.60;41.30
11491;DHT22;5802;52.832;4.758;2023-03-13T08:10:19;22.70;41.30
11491;DHT22;5802;52.832;4.758;2023-03-13T08:12:46;22.70;41.40
11491;DHT22;5802;52.832;4.758;2023-03-13T08:15:13;22.70;41.30
11491;DHT22;5802;52.832;4.758;2023-03-13T08:17:39;22.70;41.30
11491;DHT22;5802;52.832;4.758;2023-03-13T08:20:07;22.70;41.30
11491;DHT22;5802;52.832;4.758;2023-03-13T08:22:35;22.70;41.30
11491;DHT22;5802;52.832;4.758;2023-03-13T08:25:04;22.70;41.30
11491;DHT22;5802;52.832;4.758;2023-03-13T08:27:31;22.80;41.20
11491;DHT22;5802;52.832;4.758;2023-03-13T08:29:57;22.70;41.20
11491;DHT22;5802;52.832;4.758;2023-03-13T08:32:24;22.80;41.30
11491;DHT22;5802;52.832;4.758;2023-03-13T08:34:51;22.80;41.30
11491;DHT22;5802;52.832;4.758;2023-03-13T08:37:17;22.80;41.30
11491;DHT22;5802;52.832;4.758;2023-03-13T08:39:44;22.80;41.30
11491;DHT22;5802;52.832;4.758;2023-03-13T08:42:14;22.80;41.20
11491;DHT22;5802;52.832;4.758;2023-03-13T08:44:41;22.80;41.20
11491;DHT22;5802;52.832;4.758;2023-03-13T08:47:07;22.80;41.20
11491;DHT22;5802;52.832;4.758;2023-03-13T08:49:34;22.80;41.20
11491;DHT22;5802;52.832;4.758;2023-03-13T08:52:03;22.80;41.20
11491;DHT22;5802;52.832;4.758;2023-03-13T08:54:29;22.80;41.20
11491;DHT22;5802;52.832;4.758;2023-03-13T08:56:56;22.80;41.20
11491;DHT22;5802;52.832;4.758;2023-03-13T08:59:25;22.80;41.20
11491;DHT22;5802;52.832;4.758;2023-03-13T09:01:52;22.80;41.20
11491;DHT22;5802;52.832;4.758;2023-03-13T09:04:19;22.80;41.20
11491;DHT22;5802;52.832;4.758;2023-03-13T09:06:46;22.90;41.20
11491;DHT22;5802;52.832;4.758;2023-03-13T09:09:12;22.90;41.20
11491;DHT22;5802;52.832;4.758;2023-03-13T09:11:40;22.90;41.20
11491;DHT22;5802;52.832;4.758;2023-03-13T09:14:09;23.00;41.10
11491;DHT22;5802;52.832;4.758;2023-03-13T09:16:37;23.00;41.10
11491;DHT22;5802;52.832;4.758;2023-03-13T09:19:04;23.00;41.00
11491;DHT22;5802;52.832;4.758;2023-03-13T09:21:32;23.10;41.00
11491;DHT22;5802;52.832;4.758;2023-03-13T09:23:59;23.20;41.00
11491;DHT22;5802;52.832;4.758;2023-03-13T09:26:27;23.20;40.90
11491;DHT22;5802;52.832;4.758;2023-03-13T09:28:54;23.20;40.80
11491;DHT22;5802;52.832;4.758;2023-03-13T09:31:23;23.30;40.90
11491;DHT22;5802;52.832;4.758;2023-03-13T09:33:51;23.30;40.80
11491;DHT22;5802;52.832;4.758;2023-03-13T09:36:19;23.30;40.80
11491;DHT22;5802;52.832;4.758;2023-03-13T09:38:46;23.30;40.70
11491;DHT22;5802;52.832;4.758;2023-03-13T09:41:25;23.40;40.70
11491;DHT22;5802;52.832;4.758;2023-03-13T09:43:58;23.40;40.60
11491;DHT22;5802;52.832;4.758;2023-03-13T09:46:32;23.40;40.50
11491;DHT22;5802;52.832;4.758;2023-03-13T09:49:07;23.40;40.50
11491;DHT22;5802;52.832;4.758;2023-03-13T09:51:38;23.50;40.60
11491;DHT22;5802;52.832;4.758;2023-03-13T09:54:11;23.50;40.50
11491;DHT22;5802;52.832;4.758;2023-03-13T09:56:43;23.60;40.50
11491;DHT22;5802;52.832;4.758;2023-03-13T09:59:15;23.60;40.50
11491;DHT22;5802;52.832;4.758;2023-03-13T10:01:43;23.70;40.50
11491;DHT22;5802;52.832;4.758;2023-03-13T10:04:23;23.70;40.60
11491;DHT22;5802;52.832;4.758;2023-03-13T10:06:52;23.70;40.50
11491;DHT22;5802;52.832;4.758;2023-03-13T10:09:21;23.80;40.60
11491;DHT22;5802;52.832;4.758;2023-03-13T10:11:54;23.80;40.70
11491;DHT22;5802;52.832;4.758;2023-03-13T10:14:28;23.80;40.60
11491;DHT22;5802;52.832;4.758;2023-03-13T10:17:02;23.80;40.60
11491;DHT22;5802;52.832;4.758;2023-03-13T10:19:36;23.90;40.60
11491;DHT22;5802;52.832;4.758;2023-03-13T10:22:18;23.80;40.70
11491;DHT22;5802;52.832;4.758;2023-03-13T10:24:49;23.90;40.70
11491;DHT22;5802;52.832;4.758;2023-03-13T10:27:18;23.90;40.80
11491;DHT22;5802;52.832;4.758;2023-03-13T10:29:45;23.90;40.80
11491;DHT22;5802;52.832;4.758;2023-03-13T10:32:13;24.00;40.90
11491;DHT22;5802;52.832;4.758;2023-03-13T10:34:49;24.00;40.80
11491;DHT22;5802;52.832;4.758;2023-03-13T10:37:21;24.00;40.70
11491;DHT22;5802;52.832;4.758;2023-03-13T10:39:48;24.00;40.80
11491;DHT22;5802;52.832;4.758;2023-03-13T10:42:20;24.00;40.70
11491;DHT22;5802;52.832;4.758;2023-03-13T10:44:48;24.00;40.80
11491;DHT22;5802;52.832;4.758;2023-03-13T10:47:15;24.00;40.70
11491;DHT22;5802;52.832;4.758;2023-03-13T10:49:49;24.00;40.70
11491;DHT22;5802;52.832;4.758;2023-03-13T10:52:32;24.00;40.60
11491;DHT22;5802;52.832;4.758;2023-03-13T10:54:59;24.00;40.60
11491;DHT22;5802;52.832;4.758;2023-03-13T10:57:29;24.00;40.60
11491;DHT22;5802;52.832;4.758;2023-03-13T10:59:56;24.00;40.70
11491;DHT22;5802;52.832;4.758;2023-03-13T11:02:26;24.00;40.80
11491;DHT22;5802;52.832;4.758;2023-03-13T11:04:55;24.00;40.70
11491;DHT22;5802;52.832;4.758;2023-03-13T11:07:31;24.00;40.70
11491;DHT22;5802;52.832;4.758;2023-03-13T11:10:00;24.10;40.80
11491;DHT22;5802;52.832;4.758;2023-03-13T11:12:27;24.00;40.90
11491;DHT22;5802;52.832;4.758;2023-03-13T11:14:57;24.10;41.30
11491;DHT22;5802;52.832;4.758;2023-03-13T11:17:30;24.10;41.30
11491;DHT22;5802;52.832;4.758;2023-03-13T11:20:04;24.10;41.50
11491;DHT22;5802;52.832;4.758;2023-03-13T11:22:42;24.20;41.70
11491;DHT22;5802;52.832;4.758;2023-03-13T11:25:19;24.20;41.70
11491;DHT22;5802;52.832;4.758;2023-03-13T11:27:54;24.20;41.70
11491;DHT22;5802;52.832;4.758;2023-03-13T11:30:41;24.20;41.60
11491;DHT22;5802;52.832;4.758;2023-03-13T11:33:22;24.30;41.60
11491;DHT22;5802;52.832;4.758;2023-03-13T11:35:55;24.30;41.40
11491;DHT22;5802;52.832;4.758;2023-03-13T11:38:28;24.30;41.20
11491;DHT22;5802;52.832;4.758;2023-03-13T11:41:05;24.40;41.00
11491;DHT22;5802;52.832;4.758;2023-03-13T11:43:44;24.40;40.80
11491;DHT22;5802;52.832;4.758;2023-03-13T11:46:24;24.40;40.70
11491;DHT22;5802;52.832;4.758;2023-03-13T11:51:59;24.40;40.60
11491;DHT22;5802;52.832;4.758;2023-03-13T11:54:50;24.40;40.60
11491;DHT22;5802;52.832;4.758;2023-03-13T11:57:26;24.40;40.60
11491;DHT22;5802;52.832;4.758;2023-03-13T12:00:06;24.30;40.50
11491;DHT22;5802;52.832;4.758;2023-03-13T12:02:44;24.30;40.50
11491;DHT22;5802;52.832;4.758;2023-03-13T12:05:17;24.30;40.50
11491;DHT22;5802;52.832;4.758;2023-03-13T12:07:51;24.30;40.50
11491;DHT22;5802;52.832;4.758;2023-03-13T12:10:25;24.30;40.50
11491;DHT22;5802;52.832;4.758;2023-03-13T12:12:59;24.30;40.40
11491;DHT22;5802;52.832;4.758;2023-03-13T12:15:30;24.30;40.40
11491;DHT22;5802;52.832;4.758;2023-03-13T12:18:01;24.30;40.40
11491;DHT22;5802;52.832;4.758;2023-03-13T12:20:33;24.30;40.30
11491;DHT22;5802;52.832;4.758;2023-03-13T12:23:18;24.30;40.30
11491;DHT22;5802;52.832;4.758;2023-03-13T12:25:50;24.30;40.30
11491;DHT22;5802;52.832;4.758;2023-03-13T12:28:24;24.30;40.20
11491;DHT22;5802;52.832;4.758;2023-03-13T12:30:58;24.40;40.10
11491;DHT22;5802;52.832;4.758;2023-03-13T12:33:30;24.40;40.10
11491;DHT22;5802;52.832;4.758;2023-03-13T12:36:03;24.30;39.90
11491;DHT22;5802;52.832;4.758;2023-03-13T12:38:36;24.40;40.00
11491;DHT22;5802;52.832;4.758;2023-03-13T12:41:17;24.40;39.90
11491;DHT22;5802;52.832;4.758;2023-03-13T12:43:47;24.40;39.90
11491;DHT22;5802;52.832;4.758;2023-03-13T12:46:34;24.40;39.90
11491;DHT22;5802;52.832;4.758;2023-03-13T12:49:17;24.40;39.80
11491;DHT22;5802;52.832;4.758;2023-03-13T12:52:02;24.40;39.80
11491;DHT22;5802;52.832;4.758;2023-03-13T12:54:47;24.40;39.80
11491;DHT22;5802;52.832;4.758;2023-03-13T12:57:31;24.40;39.70
11491;DHT22;5802;52.832;4.758;2023-03-13T13:00:14;24.40;39.60
11491;DHT22;5802;52.832;4.758;2023-03-13T13:02:41;24.40;39.60
11491;DHT22;5802;52.832;4.758;2023-03-13T13:05:17;24.40;39.60
11491;DHT22;5802;52.832;4.758;2023-03-13T13:07:52;24.40;39.60
11491;DHT22;5802;52.832;4.758;2023-03-13T13:10:22;24.50;39.60
11491;DHT22;5802;52.832;4.758;2023-03-13T13:13:18;24.50;39.50
11491;DHT22;5802;52.832;4.758;2023-03-13T13:16:00;24.40;39.50
11491;DHT22;5802;52.832;4.758;2023-03-13T13:18:28;24.50;39.40
11491;DHT22;5802;52.832;4.758;2023-03-13T13:21:19;24.50;39.50
11491;DHT22;5802;52.832;4.758;2023-03-13T13:23:47;24.40;39.30
11491;DHT22;5802;52.832;4.758;2023-03-13T13:26:50;24.40;39.30
11491;DHT22;5802;52.832;4.758;2023-03-13T13:32:35;24.50;39.30
11491;DHT22;5802;52.832;4.758;2023-03-13T13:35:05;24.50;40.00
11491;DHT22;5802;52.832;4.758;2023-03-13T13:37:32;24.50;39.30
11491;DHT22;5802;52.832;4.758;2023-03-13T13:40:22;24.50;39.20
11491;DHT22;5802;52.832;4.758;2023-03-13T13:42:52;24.50;39.20
11491;DHT22;5802;52.832;4.758;2023-03-13T13:45:28;24.50;39.20
11491;DHT22;5802;52.832;4.758;2023-03-13T13:48:23;24.40;39.10
11491;DHT22;5802;52.832;4.758;2023-03-13T13:51:20;24.40;39.10
11491;DHT22;5802;52.832;4.758;2023-03-13T13:53:49;24.40;39.10
11491;DHT22;5802;52.832;4.758;2023-03-13T13:56:39;24.40;39.10
11491;DHT22;5802;52.832;4.758;2023-03-13T13:59:30;24.40;39.10
11491;DHT22;5802;52.832;4.758;2023-03-13T14:02:13;24.40;39.00
11491;DHT22;5802;52.832;4.758;2023-03-13T14:04:42;24.40;39.10
11491;DHT22;5802;52.832;4.758;2023-03-13T14:07:15;24.40;39.10
11491;DHT22;5802;52.832;4.758;2023-03-13T14:09:49;24.30;39.00
11491;DHT22;5802;52.832;4.758;2023-03-13T14:12:25;24.30;39.00
11491;DHT22;5802;52.832;4.758;2023-03-13T14:15:14;24.30;39.00
11491;DHT22;5802;52.832;4.758;2023-03-13T14:17:42;24.30;38.90
11491;DHT22;5802;52.832;4.758;2023-03-13T14:20:25;24.30;38.90
11491;DHT22;5802;52.832;4.758;2023-03-13T14:22:53;24.30;39.00
11491;DHT22;5802;52.832;4.758;2023-03-13T14:25:21;24.30;38.90
11491;DHT22;5802;52.832;4.758;2023-03-13T14:27:49;24.30;38.90
11491;DHT22;5802;52.832;4.758;2023-03-13T14:30:18;24.30;38.90
11491;DHT22;5802;52.832;4.758;2023-03-13T14:32:46;24.30;38.90
11491;DHT22;5802;52.832;4.758;2023-03-13T14:35:15;24.30;38.90
11491;DHT22;5802;52.832;4.758;2023-03-13T14:37:45;24.30;38.90
11491;DHT22;5802;52.832;4.758;2023-03-13T14:40:23;24.30;38.90
11491;DHT22;5802;52.832;4.758;2023-03-13T14:42:52;24.30;38.80
11491;DHT22;5802;52.832;4.758;2023-03-13T14:45:27;24.30;38.80
11491;DHT22;5802;52.832;4.758;2023-03-13T14:48:00;24.30;38.80
11491;DHT22;5802;52.832;4.758;2023-03-13T14:50:27;24.30;38.90
11491;DHT22;5802;52.832;4.758;2023-03-13T14:52:57;24.30;38.90
11491;DHT22;5802;52.832;4.758;2023-03-13T14:55:29;24.30;38.90
11491;DHT22;5802;52.832;4.758;2023-03-13T14:57:58;24.30;38.90
11491;DHT22;5802;52.832;4.758;2023-03-13T15:00:45;24.20;38.90
11491;DHT22;5802;52.832;4.758;2023-03-13T15:03:19;24.20;39.00
11491;DHT22;5802;52.832;4.758;2023-03-13T15:05:48;24.20;39.10
11491;DHT22;5802;52.832;4.758;2023-03-13T15:08:18;24.20;39.00
11491;DHT22;5802;52.832;4.758;2023-03-13T15:10:47;24.20;39.10
11491;DHT22;5802;52.832;4.758;2023-03-13T15:13:16;24.20;39.10
11491;DHT22;5802;52.832;4.758;2023-03-13T15:15:50;24.20;39.10
11491;DHT22;5802;52.832;4.758;2023-03-13T15:18:19;24.20;39.10
11491;DHT22;5802;52.832;4.758;2023-03-13T15:20:49;24.20;39.10
11491;DHT22;5802;52.832;4.758;2023-03-13T15:23:17;24.20;39.10
11491;DHT22;5802;52.832;4.758;2023-03-13T15:25:45;24.20;39.10
11491;DHT22;5802;52.832;4.758;2023-03-13T15:28:14;24.20;39.10
11491;DHT22;5802;52.832;4.758;2023-03-13T15:30:41;24.20;39.20
11491;DHT22;5802;52.832;4.758;2023-03-13T15:33:12;24.20;39.20
11491;DHT22;5802;52.832;4.758;2023-03-13T15:35:39;24.20;39.10
11491;DHT22;5802;52.832;4.758;2023-03-13T15:38:11;24.20;39.10
11491;DHT22;5802;52.832;4.758;2023-03-13T15:40:38;24.10;39.10
11491;DHT22;5802;52.832;4.758;2023-03-13T15:43:05;24.10;39.10
11491;DHT22;5802;52.832;4.758;2023-03-13T15:45:32;24.10;39.20
11491;DHT22;5802;52.832;4.758;2023-03-13T15:47:59;24.10;39.20
11491;DHT22;5802;52.832;4.758;2023-03-13T15:50:28;24.00;39.10
11491;DHT22;5802;52.832;4.758;2023-03-13T15:52:55;24.00;39.20
11491;DHT22;5802;52.832;4.758;2023-03-13T15:55:23;24.00;39.10
11491;DHT22;5802;52.832;4.758;2023-03-13T15:57:51;24.00;39.20
11491;DHT22;5802;52.832;4.758;2023-03-13T16:00:19;24.00;39.20
11491;DHT22;5802;52.832;4.758;2023-03-13T16:02:46;24.00;39.20
11491;DHT22;5802;52.832;4.758;2023-03-13T16:05:13;24.00;39.20
11491;DHT22;5802;52.832;4.758;2023-03-13T16:07:41;24.00;39.20
11491;DHT22;5802;52.832;4.758;2023-03-13T16:10:14;24.00;39.30